createdAt,value
2023-01-20T00:00:41.198Z,14
2023-01-20T00:06:31.243Z,15.2
2023-01-20T00:12:21.330Z,15.7
2023-01-20T00:18:12.471Z,14.7
2023-01-20T00:24:03.251Z,14.2
2023-01-20T00:29:54.366Z,13.8
2023-01-20T00:35:44.035Z,18.5
2023-01-20T00:41:34.788Z,16.7
2023-01-20T00:47:26.015Z,16.1
2023-01-20T00:53:17.339Z,22.1
2023-01-20T00:59:08.258Z,17.8
2023-01-20T01:04:58.355Z,15.8
2023-01-20T01:10:49.826Z,18
2023-01-20T01:16:40.184Z,18.2
2023-01-20T01:22:38.976Z,21.8
2023-01-20T01:28:28.243Z,24.8
2023-01-20T01:34:17.208Z,27
2023-01-20T01:40:07.713Z,24
2023-01-20T01:45:58.513Z,20.2
2023-01-20T01:51:49.721Z,18
2023-01-20T01:57:39.857Z,15.8
2023-01-20T02:03:30.445Z,14.9
2023-01-20T02:09:21.822Z,15.8
2023-01-20T02:15:13.728Z,15.1
2023-01-20T02:21:04.530Z,15.4
2023-01-20T02:26:56.584Z,15.1
2023-01-20T02:32:47.103Z,15.4
2023-01-20T02:38:38.125Z,15.4
2023-01-20T02:44:29.473Z,14.2
2023-01-20T02:50:20.348Z,14.6
2023-01-20T02:56:10.684Z,14.5
2023-01-20T03:02:01.991Z,13.9
2023-01-20T03:07:52.813Z,13.1
2023-01-20T03:13:43.878Z,13.6
2023-01-20T03:19:34.152Z,12.8
2023-01-20T03:25:25.086Z,12.4
2023-01-20T03:31:18.607Z,13
2023-01-20T03:37:09.367Z,13.1
2023-01-20T03:43:00.265Z,14.1
2023-01-20T03:48:50.812Z,13.8
2023-01-20T03:54:42.308Z,13.7
2023-01-20T04:00:36.553Z,14.9
2023-01-20T04:06:26.723Z,15.6
2023-01-20T04:12:18.037Z,15.3
2023-01-20T04:18:09.044Z,14
2023-01-20T04:24:00.123Z,14.1
2023-01-20T04:29:51.480Z,14.4
2023-01-20T04:35:42.185Z,15.6
2023-01-20T04:41:33.035Z,14.4
2023-01-20T04:47:24.562Z,14.1
2023-01-20T04:53:14.675Z,14.9
2023-01-20T04:59:05.823Z,15.6
2023-01-20T05:04:56.369Z,15.3
2023-01-20T05:10:46.867Z,15.7
2023-01-20T15:54:15.273Z,19.8
2023-01-20T16:00:02.961Z,19.4
2023-01-20T16:05:53.154Z,19.1
2023-01-20T16:11:43.389Z,18.6
2023-01-20T16:17:34.265Z,19
